sensor_id;sensor_type;location;lat;lon;timestamp;pressure;altitude;pressure_sealevel;temperature;humidity
86620;BME280;77338;48.126;11.620;2024-03-23T00:51:57;95057.75;;;11.19;57.94
86620;BME280;77338;48.126;11.620;2024-03-23T00:52:28;95062.25;;;11.22;57.62
86620;BME280;77338;48.126;11.620;2024-03-23T00:54:03;95047.84;;;11.18;58.18
86620;BME280;77338;48.126;11.620;2024-03-23T00:54:34;95059.47;;;11.22;58.09
86620;BME280;77338;48.126;11.620;2024-03-23T00:55:05;95043.09;;;11.13;58.69
86620;BME280;77338;48.126;11.620;2024-03-23T00:55:35;95052.16;;;11.19;58.34
86620;BME280;77338;48.126;11.620;2024-03-23T00:56:06;95055.78;;;11.14;58.48
86620;BME280;77338;48.126;11.620;2024-03-23T00:56:37;95056.69;;;11.22;58.78
86620;BME280;77338;48.126;11.620;2024-03-23T00:57:08;95059.34;;;11.15;58.91
86620;BME280;77338;48.126;11.620;2024-03-23T00:57:38;95060.81;;;11.16;58.37
86620;BME280;77338;48.126;11.620;2024-03-23T00:58:09;95041.66;;;11.07;58.11
86620;BME280;77338;48.126;11.620;2024-03-23T00:58:40;95064.38;;;11.16;57.90
86620;BME280;77338;48.126;11.620;2024-03-23T00:59:10;95057.06;;;11.13;58.96
86620;BME280;77338;48.126;11.620;2024-03-23T00:59:42;95055.09;;;11.08;58.29
86620;BME280;77338;48.126;11.620;2024-03-23T01:00:13;95052.06;;;11.06;58.24
86620;BME280;77338;48.126;11.620;2024-03-23T01:00:44;95053.06;;;11.09;58.12
86620;BME280;77338;48.126;11.620;2024-03-23T01:01:15;95046.28;;;11.04;58.36
86620;BME280;77338;48.126;11.620;2024-03-23T01:01:45;95039.47;;;10.99;58.82
86620;BME280;77338;48.126;11.620;2024-03-23T01:02:16;95028.38;;;10.94;58.33
86620;BME280;77338;48.126;11.620;2024-03-23T01:02:47;95033.50;;;10.90;59.92
86620;BME280;77338;48.126;11.620;2024-03-23T01:03:18;95033.50;;;10.90;60.03
86620;BME280;77338;48.126;11.620;2024-03-23T01:03:48;95033.81;;;10.86;60.53
86620;BME280;77338;48.126;11.620;2024-03-23T01:04:19;95058.00;;;10.97;60.34
86620;BME280;77338;48.126;11.620;2024-03-23T01:04:50;95020.44;;;10.79;59.64
86620;BME280;77338;48.126;11.620;2024-03-23T01:05:21;95028.06;;;10.79;59.84
86620;BME280;77338;48.126;11.620;2024-03-23T01:05:51;95044.88;;;10.92;60.21
86620;BME280;77338;48.126;11.620;2024-03-23T01:06:24;95027.84;;;10.77;60.30
86620;BME280;77338;48.126;11.620;2024-03-23T01:06:55;95036.88;;;10.83;59.89
86620;BME280;77338;48.126;11.620;2024-03-23T01:07:25;95039.41;;;10.86;60.05
86620;BME280;77338;48.126;11.620;2024-03-23T01:07:56;95030.84;;;10.79;59.86
86620;BME280;77338;48.126;11.620;2024-03-23T01:08:27;95039.66;;;10.83;60.18
86620;BME280;77338;48.126;11.620;2024-03-23T01:08:57;95018.84;;;10.65;60.10
86620;BME280;77338;48.126;11.620;2024-03-23T01:09:28;95034.47;;;10.74;60.84
86620;BME280;77338;48.126;11.620;2024-03-23T01:09:59;95032.72;;;10.71;60.84
86620;BME280;77338;48.126;11.620;2024-03-23T01:10:30;95021.19;;;10.61;60.50
86620;BME280;77338;48.126;11.620;2024-03-23T01:11:01;95031.28;;;10.64;60.12
86620;BME280;77338;48.126;11.620;2024-03-23T01:11:33;95031.16;;;10.75;60.53
86620;BME280;77338;48.126;11.620;2024-03-23T01:12:05;95024.13;;;10.69;60.66
86620;BME280;77338;48.126;11.620;2024-03-23T01:12:36;95046.38;;;10.74;60.72
86620;BME280;77338;48.126;11.620;2024-03-23T01:13:06;95023.91;;;10.67;60.29
86620;BME280;77338;48.126;11.620;2024-03-23T01:13:37;95028.66;;;10.72;60.52
86620;BME280;77338;48.126;11.620;2024-03-23T01:14:08;95011.84;;;10.58;60.40
86620;BME280;77338;48.126;11.620;2024-03-23T01:14:38;95020.88;;;10.65;60.48
86620;BME280;77338;48.126;11.620;2024-03-23T01:15:09;95024.41;;;10.65;60.55
86620;BME280;77338;48.126;11.620;2024-03-23T01:15:40;95015.44;;;10.53;61.03
86620;BME280;77338;48.126;11.620;2024-03-23T01:16:11;95019.66;;;10.60;60.58
86620;BME280;77338;48.126;11.620;2024-03-23T01:16:41;95008.09;;;10.50;60.33
86620;BME280;77338;48.126;11.620;2024-03-23T01:17:12;95005.09;;;10.48;60.76
86620;BME280;77338;48.126;11.620;2024-03-23T01:17:43;95030.53;;;10.64;60.53
86620;BME280;77338;48.126;11.620;2024-03-23T01:18:14;95016.47;;;10.50;61.28
86620;BME280;77338;48.126;11.620;2024-03-23T01:18:44;94996.56;;;10.41;61.26
86620;BME280;77338;48.126;11.620;2024-03-23T01:19:15;95023.22;;;10.60;61.38
86620;BME280;77338;48.126;11.620;2024-03-23T01:19:46;95021.78;;;10.54;61.56
86620;BME280;77338;48.126;11.620;2024-03-23T01:20:16;94995.13;;;10.34;62.00
86620;BME280;77338;48.126;11.620;2024-03-23T01:20:48;95027.34;;;10.54;61.86
86620;BME280;77338;48.126;11.620;2024-03-23T01:21:18;94991.13;;;10.30;61.90
86620;BME280;77338;48.126;11.620;2024-03-23T01:21:51;95008.78;;;10.38;62.05
86620;BME280;77338;48.126;11.620;2024-03-23T01:22:21;95021.59;;;10.46;61.45
86620;BME280;77338;48.126;11.620;2024-03-23T01:22:52;95018.59;;;10.44;62.11
86620;BME280;77338;48.126;11.620;2024-03-23T01:23:23;95001.22;;;10.33;61.71
86620;BME280;77338;48.126;11.620;2024-03-23T01:23:54;95026.41;;;10.46;61.99
86620;BME280;77338;48.126;11.620;2024-03-23T01:24:24;95011.25;;;10.41;61.97
86620;BME280;77338;48.126;11.620;2024-03-23T01:24:55;95019.00;;;10.54;60.52
86620;BME280;77338;48.126;11.620;2024-03-23T01:25:26;95021.03;;;10.53;60.37
86620;BME280;77338;48.126;11.620;2024-03-23T01:25:56;95024.78;;;10.56;61.02
86620;BME280;77338;48.126;11.620;2024-03-23T01:26:27;95028.84;;;10.55;61.24
86620;BME280;77338;48.126;11.620;2024-03-23T01:26:58;95009.53;;;10.38;60.95
86620;BME280;77338;48.126;11.620;2024-03-23T01:27:29;95026.31;;;10.57;61.04
86620;BME280;77338;48.126;11.620;2024-03-23T01:27:59;94997.97;;;10.29;60.75
86620;BME280;77338;48.126;11.620;2024-03-23T01:28:30;95017.69;;;10.55;60.46
86620;BME280;77338;48.126;11.620;2024-03-23T01:29:01;95007.97;;;10.43;60.80
86620;BME280;77338;48.126;11.620;2024-03-23T01:29:31;95028.84;;;10.55;60.54
86620;BME280;77338;48.126;11.620;2024-03-23T01:30:02;95015.00;;;10.49;60.86
86620;BME280;77338;48.126;11.620;2024-03-23T01:30:34;94991.81;;;10.36;60.32
86620;BME280;77338;48.126;11.620;2024-03-23T01:31:05;95010.13;;;10.50;60.02
86620;BME280;77338;48.126;11.620;2024-03-23T01:31:36;95005.09;;;10.48;59.33
86620;BME280;77338;48.126;11.620;2024-03-23T01:32:06;95004.66;;;10.44;59.47
86620;BME280;77338;48.126;11.620;2024-03-23T01:32:37;94976.00;;;10.44;58.73
86620;BME280;77338;48.126;11.620;2024-03-23T01:33:08;94996.19;;;10.50;59.47
86620;BME280;77338;48.126;11.620;2024-03-23T01:33:39;95004.75;;;10.57;60.02
86620;BME280;77338;48.126;11.620;2024-03-23T01:34:09;95007.53;;;10.57;60.01
86620;BME280;77338;48.126;11.620;2024-03-23T01:34:40;94984.69;;;10.40;59.69
86620;BME280;77338;48.126;11.620;2024-03-23T01:35:11;94990.97;;;10.41;60.17
86620;BME280;77338;48.126;11.620;2024-03-23T01:35:41;95005.88;;;10.49;60.23
86620;BME280;77338;48.126;11.620;2024-03-23T01:36:12;95014.84;;;10.60;59.19
86620;BME280;77338;48.126;11.620;2024-03-23T01:36:44;94992.97;;;10.46;58.41
86620;BME280;77338;48.126;11.620;2024-03-23T01:37:16;95001.72;;;10.55;59.10
86620;BME280;77338;48.126;11.620;2024-03-23T01:37:47;94997.25;;;10.47;59.33
86620;BME280;77338;48.126;11.620;2024-03-23T01:38:18;95017.41;;;10.58;59.70
86620;BME280;77338;48.126;11.620;2024-03-23T01:38:50;95010.31;;;10.57;60.42
86620;BME280;77338;48.126;11.620;2024-03-23T01:39:22;94992.38;;;10.53;59.51
86620;BME280;77338;48.126;11.620;2024-03-23T01:39:53;95010.72;;;10.67;58.73
86620;BME280;77338;48.126;11.620;2024-03-23T01:40:24;95012.28;;;10.63;58.98
86620;BME280;77338;48.126;11.620;2024-03-23T01:40:57;94999.69;;;10.56;58.58
86620;BME280;77338;48.126;11.620;2024-03-23T01:41:28;94996.13;;;10.55;60.43
86620;BME280;77338;48.126;11.620;2024-03-23T01:41:59;95004.44;;;10.61;58.98
86620;BME280;77338;48.126;11.620;2024-03-23T01:42:29;95006.47;;;10.60;58.37
86620;BME280;77338;48.126;11.620;2024-03-23T01:43:07;95019.03;;;10.73;58.53
86620;BME280;77338;48.126;11.620;2024-03-23T01:43:38;95013.59;;;10.80;57.50
86620;BME280;77338;48.126;11.620;2024-03-23T01:44:09;94997.22;;;10.71;56.96
86620;BME280;77338;48.126;11.620;2024-03-23T01:44:41;94999.50;;;10.73;57.35
86620;BME280;77338;48.126;11.620;2024-03-23T01:45:12;95008.25;;;10.82;57.65
86620;BME280;77338;48.126;11.620;2024-03-23T01:45:43;95017.34;;;10.83;57.93
86620;BME280;77338;48.126;11.620;2024-03-23T01:46:14;95010.03;;;10.80;57.98
86620;BME280;77338;48.126;11.620;2024-03-23T01:46:45;94983.94;;;10.58;58.02
86620;BME280;77338;48.126;11.620;2024-03-23T01:47:15;94990.44;;;10.67;57.44
86620;BME280;77338;48.126;11.620;2024-03-23T01:47:46;94992.22;;;10.64;57.80
86620;BME280;77338;48.126;11.620;2024-03-23T01:48:17;95004.47;;;10.80;56.91
86620;BME280;77338;48.126;11.620;2024-03-23T01:48:48;94993.16;;;10.72;57.11
86620;BME280;77338;48.126;11.620;2024-03-23T01:49:20;94995.19;;;10.72;57.34
86620;BME280;77338;48.126;11.620;2024-03-23T01:49:51;95001.75;;;10.74;57.50
86620;BME280;77338;48.126;11.620;2024-03-23T01:50:22;94997.97;;;10.72;58.21
86620;BME280;77338;48.126;11.620;2024-03-23T01:50:54;94994.94;;;10.70;57.92
86620;BME280;77338;48.126;11.620;2024-03-23T01:51:26;94991.78;;;10.79;57.24
86620;BME280;77338;48.126;11.620;2024-03-23T01:51:56;94976.72;;;10.69;56.89
86620;BME280;77338;48.126;11.620;2024-03-23T01:52:27;94978.97;;;10.70;57.66
86620;BME280;77338;48.126;11.620;2024-03-23T01:52:58;94989.38;;;10.70;58.47
86620;BME280;77338;48.126;11.620;2024-03-23T01:53:29;95000.91;;;10.79;58.12
86620;BME280;77338;48.126;11.620;2024-03-23T01:54:00;94981.47;;;10.74;56.47
86620;BME280;77338;48.126;11.620;2024-03-23T01:54:33;94999.13;;;10.82;57.84
86620;BME280;77338;48.126;11.620;2024-03-23T01:55:06;95006.69;;;10.87;58.09
86620;BME280;77338;48.126;11.620;2024-03-23T01:55:38;95001.47;;;10.78;58.45
86620;BME280;77338;48.126;11.620;2024-03-23T01:56:09;94986.97;;;10.79;57.13
86620;BME280;77338;48.126;11.620;2024-03-23T01:56:40;94992.25;;;10.83;56.97
86620;BME280;77338;48.126;11.620;2024-03-23T01:57:11;94994.31;;;10.82;56.99
86620;BME280;77338;48.126;11.620;2024-03-23T01:57:42;94979.88;;;10.78;56.84
86620;BME280;77338;48.126;11.620;2024-03-23T01:58:12;94983.22;;;10.77;56.77
86620;BME280;77338;48.126;11.620;2024-03-23T01:58:43;94995.97;;;10.91;56.05
86620;BME280;77338;48.126;11.620;2024-03-23T01:59:14;94988.19;;;10.84;55.71
86620;BME280;77338;48.126;11.620;2024-03-23T01:59:45;94974.31;;;10.78;56.94
86620;BME280;77338;48.126;11.620;2024-03-23T02:00:16;95000.56;;;10.88;57.18
86620;BME280;77338;48.126;11.620;2024-03-23T02:00:47;94996.19;;;10.93;56.79
86620;BME280;77338;48.126;11.620;2024-03-23T02:01:17;94977.84;;;10.79;56.06
86620;BME280;77338;48.126;11.620;2024-03-23T02:01:49;94966.47;;;10.77;56.05
86620;BME280;77338;48.126;11.620;2024-03-23T02:02:21;94980.88;;;10.81;56.10
86620;BME280;77338;48.126;11.620;2024-03-23T02:02:52;94975.06;;;10.79;57.67
86620;BME280;77338;48.126;11.620;2024-03-23T02:03:24;94964.22;;;10.75;57.92
86620;BME280;77338;48.126;11.620;2024-03-23T02:03:55;94975.59;;;10.77;58.13
86620;BME280;77338;48.126;11.620;2024-03-23T02:04:26;94964.59;;;10.66;58.44
86620;BME280;77338;48.126;11.620;2024-03-23T02:04:57;94982.38;;;10.82;58.52
86620;BME280;77338;48.126;11.620;2024-03-23T02:05:27;94995.28;;;10.85;57.48
86620;BME280;77338;48.126;11.620;2024-03-23T02:05:58;94996.03;;;10.85;57.80
86620;BME280;77338;48.126;11.620;2024-03-23T02:06:30;94971.13;;;10.69;57.70
86620;BME280;77338;48.126;11.620;2024-03-23T02:07:01;94980.69;;;10.73;58.46
86620;BME280;77338;48.126;11.620;2024-03-23T02:07:32;94991.78;;;10.79;59.06
86620;BME280;77338;48.126;11.620;2024-03-23T02:08:03;94973.25;;;10.63;58.98
86620;BME280;77338;48.126;11.620;2024-03-23T02:08:34;94962.91;;;10.57;59.53
86620;BME280;77338;48.126;11.620;2024-03-23T02:09:05;94973.25;;;10.63;59.64
86620;BME280;77338;48.126;11.620;2024-03-23T02:09:36;94989.38;;;10.70;59.94
86620;BME280;77338;48.126;11.620;2024-03-23T02:10:07;94970.00;;;10.58;59.88
86620;BME280;77338;48.126;11.620;2024-03-23T02:10:38;94972.09;;;10.52;60.25
86620;BME280;77338;48.126;11.620;2024-03-23T02:11:09;94965.53;;;10.50;60.14
86620;BME280;77338;48.126;11.620;2024-03-23T02:11:39;94978.75;;;10.49;60.09
86620;BME280;77338;48.126;11.620;2024-03-23T02:12:11;94957.78;;;10.43;60.43
86620;BME280;77338;48.126;11.620;2024-03-23T02:12:42;94969.63;;;10.49;59.74
86620;BME280;77338;48.126;11.620;2024-03-23T02:13:14;94963.50;;;10.50;59.37
86620;BME280;77338;48.126;11.620;2024-03-23T02:13:45;94965.16;;;10.40;59.89
86620;BME280;77338;48.126;11.620;2024-03-23T02:14:15;94952.09;;;10.30;59.17
86620;BME280;77338;48.126;11.620;2024-03-23T02:14:46;94960.41;;;10.35;60.01
86620;BME280;77338;48.126;11.620;2024-03-23T02:15:18;94976.78;;;10.44;59.81
86620;BME280;77338;48.126;11.620;2024-03-23T02:15:49;94982.56;;;10.46;59.77
86620;BME280;77338;48.126;11.620;2024-03-23T02:16:20;94974.56;;;10.37;59.64
86620;BME280;77338;48.126;11.620;2024-03-23T02:16:51;94975.09;;;10.36;60.07
86620;BME280;77338;48.126;11.620;2024-03-23T02:17:23;94968.28;;;10.31;59.64
86620;BME280;77338;48.126;11.620;2024-03-23T02:17:53;94969.81;;;10.32;59.82
86620;BME280;77338;48.126;11.620;2024-03-23T02:18:24;94963.78;;;10.28;59.81
86620;BME280;77338;48.126;11.620;2024-03-23T02:18:55;94963.78;;;10.28;59.45
86620;BME280;77338;48.126;11.620;2024-03-23T02:19:25;94964.53;;;10.29;60.17
86620;BME280;77338;48.126;11.620;2024-03-23T02:19:56;94964.53;;;10.29;60.01
86620;BME280;77338;48.126;11.620;2024-03-23T02:20:27;94953.31;;;10.34;59.17
86620;BME280;77338;48.126;11.620;2024-03-23T02:20:59;94945.78;;;10.29;59.26
86620;BME280;77338;48.126;11.620;2024-03-23T02:21:29;94940.03;;;10.22;59.31
86620;BME280;77338;48.126;11.620;2024-03-23T02:22:02;94971.72;;;10.43;59.97
86620;BME280;77338;48.126;11.620;2024-03-23T02:22:38;94964.22;;;10.32;59.60
86620;BME280;77338;48.126;11.620;2024-03-23T02:23:16;94980.13;;;10.37;59.58
86620;BME280;77338;48.126;11.620;2024-03-23T02:23:48;94971.06;;;10.31;59.88
86620;BME280;77338;48.126;11.620;2024-03-23T02:24:18;94971.56;;;10.35;59.90
86620;BME280;77338;48.126;11.620;2024-03-23T02:24:49;94958.25;;;10.23;60.13
86620;BME280;77338;48.126;11.620;2024-03-23T02:25:20;94977.19;;;10.30;60.24
86620;BME280;77338;48.126;11.620;2024-03-23T02:25:51;94961.03;;;10.23;60.35
86620;BME280;77338;48.126;11.620;2024-03-23T02:26:23;94972.38;;;10.30;60.94
86620;BME280;77338;48.126;11.620;2024-03-23T02:26:54;94947.72;;;10.15;61.33
86620;BME280;77338;48.126;11.620;2024-03-23T02:27:24;94954.56;;;10.09;61.31
86620;BME280;77338;48.126;11.620;2024-03-23T02:27:55;94950.81;;;10.06;61.40
86620;BME280;77338;48.126;11.620;2024-03-23T02:28:26;94967.22;;;10.10;61.58
86620;BME280;77338;48.126;11.620;2024-03-23T02:28:56;94963.22;;;10.05;61.09
86620;BME280;77338;48.126;11.620;2024-03-23T02:29:27;94958.63;;;10.08;61.46
86620;BME280;77338;48.126;11.620;2024-03-23T02:29:58;94960.91;;;10.09;61.16
86620;BME280;77338;48.126;11.620;2024-03-23T02:30:29;94951.94;;;9.98;61.48
86620;BME280;77338;48.126;11.620;2024-03-23T02:31:00;94964.44;;;10.10;62.02
86620;BME280;77338;48.126;11.620;2024-03-23T02:31:31;94971.53;;;10.11;61.10
86620;BME280;77338;48.126;11.620;2024-03-23T02:32:02;94962.94;;;10.09;61.89
86620;BME280;77338;48.126;11.620;2024-03-23T02:32:33;94951.63;;;10.01;61.89
86620;BME280;77338;48.126;11.620;2024-03-23T02:33:04;94967.53;;;10.06;61.81
86620;BME280;77338;48.126;11.620;2024-03-23T02:33:34;94947.38;;;9.95;61.47
86620;BME280;77338;48.126;11.620;2024-03-23T02:34:08;94952.94;;;9.95;61.45
86620;BME280;77338;48.126;11.620;2024-03-23T02:34:39;94949.41;;;9.94;62.05
86620;BME280;77338;48.126;11.620;2024-03-23T02:35:10;94948.66;;;9.94;61.99
86620;BME280;77338;48.126;11.620;2024-03-23T02:35:40;94934.34;;;9.84;62.98
86620;BME280;77338;48.126;11.620;2024-03-23T02:36:11;94956.19;;;9.99;62.82
86620;BME280;77338;48.126;11.620;2024-03-23T02:36:42;94942.63;;;9.90;62.96
86620;BME280;77338;48.126;11.620;2024-03-23T02:37:12;94934.81;;;9.88;62.01
86620;BME280;77338;48.126;11.620;2024-03-23T02:37:43;94937.03;;;9.90;61.77
86620;BME280;77338;48.126;11.620;2024-03-23T02:38:14;94944.13;;;9.91;61.35
86620;BME280;77338;48.126;11.620;2024-03-23T02:38:44;94943.06;;;9.94;61.30
86620;BME280;77338;48.126;11.620;2024-03-23T02:39:15;94942.81;;;9.97;61.59
86620;BME280;77338;48.126;11.620;2024-03-23T02:39:46;94931.25;;;9.88;61.55
86620;BME280;77338;48.126;11.620;2024-03-23T02:40:17;94952.59;;;10.04;61.47
86620;BME280;77338;48.126;11.620;2024-03-23T02:40:48;94951.94;;;9.98;62.03
86620;BME280;77338;48.126;11.620;2024-03-23T02:41:18;94940.06;;;9.92;62.55
86620;BME280;77338;48.126;11.620;2024-03-23T02:41:53;94950.88;;;10.01;62.27
86620;BME280;77338;48.126;11.620;2024-03-23T02:42:24;94919.75;;;9.72;63.19
86620;BME280;77338;48.126;11.620;2024-03-23T02:42:54;94913.69;;;9.74;63.00
86620;BME280;77338;48.126;11.620;2024-03-23T02:43:25;94924.22;;;9.81;62.71
86620;BME280;77338;48.126;11.620;2024-03-23T02:43:56;94936.38;;;9.84;62.81
86620;BME280;77338;48.126;11.620;2024-03-23T02:44:27;94936.06;;;9.87;62.61
86620;BME280;77338;48.126;11.620;2024-03-23T02:44:59;94921.78;;;9.72;62.36
86620;BME280;77338;48.126;11.620;2024-03-23T02:45:30;94927.56;;;9.80;61.92
86620;BME280;77338;48.126;11.620;2024-03-23T02:46:00;94927.25;;;9.83;61.49
86620;BME280;77338;48.126;11.620;2024-03-23T02:46:31;94943.56;;;9.98;61.53
86620;BME280;77338;48.126;11.620;2024-03-23T02:47:02;94918.44;;;9.79;61.50
86620;BME280;77338;48.126;11.620;2024-03-23T02:47:33;94917.91;;;9.81;61.90
86620;BME280;77338;48.126;11.620;2024-03-23T02:48:04;94939.25;;;9.97;62.00
86620;BME280;77338;48.126;11.620;2024-03-23T02:48:35;94914.91;;;9.79;61.70
86620;BME280;77338;48.126;11.620;2024-03-23T02:49:07;94916.34;;;9.85;61.34
86620;BME280;77338;48.126;11.620;2024-03-23T02:49:38;94907.22;;;9.85;61.29
86620;BME280;77338;48.126;11.620;2024-03-23T02:50:09;94926.84;;;9.98;61.36
86620;BME280;77338;48.126;11.620;2024-03-23T02:50:39;94929.56;;;10.03;61.58
86620;BME280;77338;48.126;11.620;2024-03-23T02:51:10;94922.19;;;10.06;60.79
86620;BME280;77338;48.126;11.620;2024-03-23T02:51:41;94916.47;;;9.98;60.68
86620;BME280;77338;48.126;11.620;2024-03-23T02:52:15;94935.78;;;10.15;60.04
86620;BME280;77338;48.126;11.620;2024-03-23T02:52:47;94929.16;;;10.18;59.93
86620;BME280;77338;48.126;11.620;2024-03-23T02:53:19;94938.56;;;10.15;60.38
86620;BME280;77338;48.126;11.620;2024-03-23T02:53:50;94934.03;;;10.12;60.93
86620;BME280;77338;48.126;11.620;2024-03-23T02:54:21;94931.25;;;10.12;60.17
86620;BME280;77338;48.126;11.620;2024-03-23T02:54:53;94921.13;;;10.09;60.10
86620;BME280;77338;48.126;11.620;2024-03-23T02:55:23;94927.41;;;10.15;59.45
86620;BME280;77338;48.126;11.620;2024-03-23T02:55:54;94907.22;;;10.09;58.92
86620;BME280;77338;48.126;11.620;2024-03-23T02:56:25;94933.09;;;10.28;59.68
86620;BME280;77338;48.126;11.620;2024-03-23T02:56:55;94916.22;;;10.21;59.39
86620;BME280;77338;48.126;11.620;2024-03-23T02:57:26;94925.00;;;10.30;59.41
86620;BME280;77338;48.126;11.620;2024-03-23T02:57:57;94918.22;;;10.26;58.73
86620;BME280;77338;48.126;11.620;2024-03-23T02:58:32;94937.50;;;10.42;58.90
86620;BME280;77338;48.126;11.620;2024-03-23T02:59:02;94930.41;;;10.41;58.62
86620;BME280;77338;48.126;11.620;2024-03-23T02:59:33;94915.50;;;10.39;58.53
86620;BME280;77338;48.126;11.620;2024-03-23T03:00:04;94908.72;;;10.34;59.16
86620;BME280;77338;48.126;11.620;2024-03-23T03:00:36;94926.03;;;10.46;58.25
86620;BME280;77338;48.126;11.620;2024-03-23T03:01:07;94907.34;;;10.41;58.23
86620;BME280;77338;48.126;11.620;2024-03-23T03:01:38;94902.63;;;10.36;58.13
86620;BME280;77338;48.126;11.620;2024-03-23T03:02:09;94914.63;;;10.49;58.16
86620;BME280;77338;48.126;11.620;2024-03-23T03:02:39;94917.53;;;10.57;58.02
86620;BME280;77338;48.126;11.620;2024-03-23T03:03:10;94902.53;;;10.41;57.48
86620;BME280;77338;48.126;11.620;2024-03-23T03:03:41;94898.72;;;10.44;58.03
86620;BME280;77338;48.126;11.620;2024-03-23T03:04:11;94912.72;;;10.57;57.87
86620;BME280;77338;48.126;11.620;2024-03-23T03:04:42;94919.06;;;10.58;57.61
86620;BME280;77338;48.126;11.620;2024-03-23T03:05:13;94927.34;;;10.64;57.86
86620;BME280;77338;48.126;11.620;2024-03-23T03:05:46;94929.53;;;10.71;57.91
86620;BME280;77338;48.126;11.620;2024-03-23T03:06:26;94909.94;;;10.57;57.50
86620;BME280;77338;48.126;11.620;2024-03-23T03:06:57;94921.22;;;10.65;57.88
86620;BME280;77338;48.126;11.620;2024-03-23T03:07:28;94911.22;;;10.56;57.34
86620;BME280;77338;48.126;11.620;2024-03-23T03:07:58;94936.63;;;10.72;57.84
86620;BME280;77338;48.126;11.620;2024-03-23T03:08:29;94931.13;;;10.66;57.92
86620;BME280;77338;48.126;11.620;2024-03-23T03:09:00;94902.72;;;10.49;58.00
86620;BME280;77338;48.126;11.620;2024-03-23T03:09:30;94924.25;;;10.67;57.73
86620;BME280;77338;48.126;11.620;2024-03-23T03:10:02;94906.16;;;10.55;57.90
86620;BME280;77338;48.126;11.620;2024-03-23T03:10:34;94916.28;;;10.58;58.03
86620;BME280;77338;48.126;11.620;2024-03-23T03:11:06;94926.81;;;10.65;57.83
86620;BME280;77338;48.126;11.620;2024-03-23T03:11:37;94906.16;;;10.55;58.35
86620;BME280;77338;48.126;11.620;2024-03-23T03:12:08;94889.66;;;10.38;58.73
86620;BME280;77338;48.126;11.620;2024-03-23T03:12:39;94906.69;;;10.53;57.89
86620;BME280;77338;48.126;11.620;2024-03-23T03:13:10;94888.75;;;10.49;58.15
86620;BME280;77338;48.126;11.620;2024-03-23T03:13:41;94902.84;;;10.56;57.88
86620;BME280;77338;48.126;11.620;2024-03-23T03:14:11;94900.56;;;10.55;57.94
86620;BME280;77338;48.126;11.620;2024-03-23T03:14:42;94899.22;;;10.62;57.72
86620;BME280;77338;48.126;11.620;2024-03-23T03:15:14;94917.78;;;10.78;57.54
86620;BME280;77338;48.126;11.620;2024-03-23T03:15:46;94883.84;;;10.55;57.22
86620;BME280;77338;48.126;11.620;2024-03-23T03:16:16;94924.56;;;10.82;57.40
86620;BME280;77338;48.126;11.620;2024-03-23T03:16:47;94901.34;;;10.74;57.29
86620;BME280;77338;48.126;11.620;2024-03-23T03:17:18;94892.81;;;10.67;57.78
86620;BME280;77338;48.126;11.620;2024-03-23T03:17:49;94889.97;;;10.72;56.90
86620;BME280;77338;48.126;11.620;2024-03-23T03:18:20;94900.81;;;10.76;57.46
86620;BME280;77338;48.126;11.620;2024-03-23T03:18:51;94875.41;;;10.60;57.08
86620;BME280;77338;48.126;11.620;2024-03-23T03:19:23;94917.47;;;10.81;57.49
86620;BME280;77338;48.126;11.620;2024-03-23T03:19:53;94897.56;;;10.72;57.32
86620;BME280;77338;48.126;11.620;2024-03-23T03:20:26;94904.94;;;10.69;57.47
86620;BME280;77338;48.126;11.620;2024-03-23T03:20:57;94914.63;;;10.68;58.11
86620;BME280;77338;48.126;11.620;2024-03-23T03:21:28;94900.38;;;10.72;57.30
86620;BME280;77338;48.126;11.620;2024-03-23T03:21:58;94904.19;;;10.69;57.53
86620;BME280;77338;48.126;11.620;2024-03-23T03:22:29;94880.78;;;10.58;57.16
86620;BME280;77338;48.126;11.620;2024-03-23T03:23:00;94910.53;;;10.69;57.54
86620;BME280;77338;48.126;11.620;2024-03-23T03:23:31;94917.53;;;10.76;57.32
86620;BME280;77338;48.126;11.620;2024-03-23T03:24:02;94900.19;;;10.64;57.61
86620;BME280;77338;48.126;11.620;2024-03-23T03:24:33;94904.88;;;10.75;57.53
86620;BME280;77338;48.126;11.620;2024-03-23T03:25:04;94899.53;;;10.77;57.38
86620;BME280;77338;48.126;11.620;2024-03-23T03:25:35;94858.47;;;10.58;56.86
86620;BME280;77338;48.126;11.620;2024-03-23T03:26:06;94874.66;;;10.60;57.12
86620;BME280;77338;48.126;11.620;2024-03-23T03:26:37;94862.59;;;10.52;57.21
86620;BME280;77338;48.126;11.620;2024-03-23T03:27:08;94867.66;;;10.53;57.64
86620;BME280;77338;48.126;11.620;2024-03-23T03:27:39;94881.16;;;10.68;56.86
86620;BME280;77338;48.126;11.620;2024-03-23T03:28:10;94896.00;;;10.76;56.82
86620;BME280;77338;48.126;11.620;2024-03-23T03:28:40;94887.63;;;10.76;57.05
86620;BME280;77338;48.126;11.620;2024-03-23T03:29:11;94909.25;;;10.89;57.24
86620;BME280;77338;48.126;11.620;2024-03-23T03:29:42;94896.66;;;10.82;56.59
86620;BME280;77338;48.126;11.620;2024-03-23T03:30:13;94897.19;;;10.81;57.49
86620;BME280;77338;48.126;11.620;2024-03-23T03:30:44;94896.94;;;10.79;56.87
86620;BME280;77338;48.126;11.620;2024-03-23T03:31:15;94879.94;;;10.64;57.79
86620;BME280;77338;48.126;11.620;2024-03-23T03:31:46;94873.44;;;10.55;57.64
86620;BME280;77338;48.126;11.620;2024-03-23T03:32:17;94888.38;;;10.58;57.71
86620;BME280;77338;48.126;11.620;2024-03-23T03:32:49;94875.66;;;10.63;56.77
86620;BME280;77338;48.126;11.620;2024-03-23T03:33:20;94903.59;;;10.76;57.62
86620;BME280;77338;48.126;11.620;2024-03-23T03:33:50;94880.84;;;10.53;57.49
86620;BME280;77338;48.126;11.620;2024-03-23T03:34:21;94863.81;;;10.38;57.81
86620;BME280;77338;48.126;11.620;2024-03-23T03:34:52;94888.22;;;10.50;57.72
86620;BME280;77338;48.126;11.620;2024-03-23T03:35:23;94886.44;;;10.53;57.82